Terminal Aerodrome Forecast
Issued by NWS

Home | Current Version | Previous Version | Text Only | Print | Product List | Glossary On
Versions: 1 2 3 4 5 6 7 8 9 10 11 12 13 14 15
667
FTUS45 KTFX 291120
TAFHLN
TAF
KHLN 291120Z 2912/3012 27009KT P6SM OVC060
     FM292200 24006KT P6SM VCSH FEW020 BKN050
     FM300700 25005KT 5SM -SHRA BR SCT030 BKN050=

USA.gov is the U.S. government's official web portal to all federal, state and local government web resources and services.